Time;durP1;ratioP1;P1;durP2;ratioP2;P2;SDS_P1;SDS_P2;PMS_P1;PMS_P2;Temp;Humidity;BMP_temperature;BMP_pressure;BME280_temperature;BME280_humidity;BME280_pressure;Samples;Min_cycle;Max_cycle;Signal;HPM_P1;HPM_P2
2022/12/13 00:00:30;;;;;;;;;30.50;25.50;;;;;0.02;66.31;100105.78;5098107;27;45326;-63
2022/12/13 00:02:55;;;;;;;;;37.75;30.50;;;;;0.05;66.02;100100.47;5097398;27;45388;-61
2022/12/13 00:05:21;;;;;;;;;35.75;30.00;;;;;0.02;66.30;100089.22;5093084;27;45340;-61
2022/12/13 00:07:46;;;;;;;;;23.50;21.25;;;;;0.05;65.77;100094.38;5097299;27;45420;-64
2022/12/13 00:10:11;;;;;;;;;31.25;28.00;;;;;0.07;65.75;100092.59;5078088;27;45532;-61
2022/12/13 00:12:37;;;;;;;;;31.00;25.00;;;;;0.09;66.04;100091.66;5098235;27;45572;-62
2022/12/13 00:15:04;;;;;;;;;33.25;30.25;;;;;0.09;65.46;100086.44;5078929;27;45428;-62
2022/12/13 00:17:31;;;;;;;;;37.75;24.25;;;;;0.03;65.55;100085.72;5095879;27;45326;-61
2022/12/13 00:19:56;;;;;;;;;32.75;25.00;;;;;0.06;65.06;100080.41;5096886;27;45223;-60
2022/12/13 00:22:22;;;;;;;;;32.50;29.00;;;;;0.07;65.46;100076.91;5094749;27;45385;-61
2022/12/13 00:24:47;;;;;;;;;27.75;21.00;;;;;0.07;64.87;100079.53;5078647;27;48373;-60
2022/12/13 00:27:12;;;;;;;;;39.50;30.25;;;;;0.07;64.86;100077.78;5095142;27;45223;-58
2022/12/13 00:29:38;;;;;;;;;33.50;24.75;;;;;-0.03;65.25;100061.41;5090356;27;45553;-64
2022/12/13 00:32:03;;;;;;;;;30.00;21.25;;;;;0.08;64.92;100078.63;5081188;27;45375;-59
2022/12/13 00:34:29;;;;;;;;;25.25;24.75;;;;;0.06;64.95;100070.81;5088871;27;45700;-59
2022/12/13 00:36:57;;;;;;;;;34.50;18.00;;;;;0.03;64.92;100072.66;5097458;27;45346;-59
2022/12/13 00:39:23;;;;;;;;;36.00;24.25;;;;;0.01;64.27;100067.47;5096474;27;45305;-60
2022/12/13 00:41:49;;;;;;;;;37.00;22.50;;;;;-0.09;64.42;100066.78;5091494;27;45545;-62
2022/12/13 00:44:14;;;;;;;;;28.00;24.75;;;;;-0.05;64.58;100068.44;5086278;27;45456;-60
2022/12/13 00:46:41;;;;;;;;;28.50;26.00;;;;;-0.04;64.68;100067.53;5076962;28;45184;-59
2022/12/13 00:49:06;;;;;;;;;23.50;18.50;;;;;-0.09;64.50;100063.31;5092361;27;45252;-60
2022/12/13 00:51:33;;;;;;;;;33.75;24.75;;;;;-0.08;64.48;100068.50;5077241;28;45546;-62
2022/12/13 00:54:00;;;;;;;;;33.25;27.00;;;;;-0.13;64.51;100074.69;5083636;27;45487;-60
2022/12/13 00:56:27;;;;;;;;;28.50;19.75;;;;;-0.14;64.98;100063.38;5086569;27;45469;-57
2022/12/13 00:58:54;;;;;;;;;32.75;26.00;;;;;-0.12;64.34;100061.63;5075791;28;45528;-62
2022/12/13 01:01:28;;;;;;;;;32.00;28.25;;;;;-0.18;64.42;100061.75;5086898;27;45310;-60
2022/12/13 01:03:55;;;;;;;;;25.00;21.75;;;;;-0.24;64.89;100061.03;5096268;27;46470;-60
2022/12/13 01:06:30;;;;;;;;;31.25;23.25;;;;;-0.23;64.76;100074.06;5095237;27;45369;-59
2022/12/13 01:08:56;;;;;;;;;22.00;22.00;;;;;-0.24;64.50;100061.03;5095761;27;45329;-59
2022/12/13 01:11:21;;;;;;;;;30.25;19.00;;;;;-0.19;64.68;100067.00;5077984;27;45296;-61
2022/12/13 01:13:46;;;;;;;;;36.25;23.00;;;;;-0.21;64.52;100060.94;5096961;27;45954;-58
2022/12/13 01:16:17;;;;;;;;;30.25;26.50;;;;;-0.16;64.50;100062.56;5095162;27;45424;-58
2022/12/13 01:18:43;;;;;;;;;27.50;25.00;;;;;-0.18;64.61;100072.19;5078219;27;45410;-59
2022/12/13 01:21:14;;;;;;;;;31.50;26.00;;;;;-0.18;64.91;100066.97;5096408;27;45591;-57
2022/12/13 01:23:40;;;;;;;;;34.00;25.50;;;;;-0.18;64.27;100059.13;5096068;27;45568;-58
2022/12/13 01:26:07;;;;;;;;;32.50;27.00;;;;;-0.22;64.05;100065.31;5091572;27;45432;-59
2022/12/13 01:28:32;;;;;;;;;38.00;22.00;;;;;-0.23;64.07;100063.59;5076465;27;45327;-59
2022/12/13 01:31:08;;;;;;;;;26.50;22.00;;;;;-0.26;64.09;100063.66;5083405;27;45649;-60
2022/12/13 01:33:33;;;;;;;;;27.00;21.00;;;;;-0.30;64.00;100062.84;5096416;27;45245;-59
2022/12/13 01:36:04;;;;;;;;;25.50;21.00;;;;;-0.29;63.72;100058.47;5078079;27;45205;-60
2022/12/13 01:38:30;;;;;;;;;22.50;17.50;;;;;-0.30;63.86;100052.41;5096793;27;45286;-59
2022/12/13 01:40:57;;;;;;;;;23.25;20.50;;;;;-0.36;64.10;100052.53;5094219;27;45429;-62
2022/12/13 01:43:48;;;;;;;;;25.75;19.00;;;;;-0.39;63.79;100047.38;5074355;28;47559;-59
2022/12/13 01:46:16;;;;;;;;;21.75;14.75;;;;;-0.40;63.86;100056.06;5083929;27;45263;-62
2022/12/13 01:48:54;;;;;;;;;19.50;18.25;;;;;-0.44;64.08;100046.59;5094913;27;45451;-61
2022/12/13 01:51:26;;;;;;;;;26.00;21.75;;;;;-0.42;64.30;100049.16;5079826;27;45522;-62
2022/12/13 01:53:55;;;;;;;;;20.75;17.50;;;;;-0.36;63.90;100060.38;5078259;27;45342;-60
2022/12/13 01:56:29;;;;;;;;;24.00;19.25;;;;;-0.33;63.72;100056.84;5108540;27;45650;-60
2022/12/13 01:58:57;;;;;;;;;22.25;19.25;;;;;-0.31;63.83;100055.91;5080531;27;45216;-60
2022/12/13 02:01:23;;;;;;;;;14.00;14.00;;;;;-0.35;63.62;100056.00;5081514;27;45480;-60
2022/12/13 02:03:49;;;;;;;;;13.75;12.00;;;;;-0.31;63.41;100068.09;5098286;27;46202;-60
2022/12/13 02:06:27;;;;;;;;;18.00;17.00;;;;;-0.43;63.44;100068.34;5099052;27;45359;-61
2022/12/13 02:08:52;;;;;;;;;20.75;16.00;;;;;-0.41;63.37;100063.94;5090753;27;45481;-58
2022/12/13 02:11:17;;;;;;;;;24.50;15.50;;;;;-0.43;63.74;100055.28;5080478;27;45375;-58
2022/12/13 02:13:43;;;;;;;;;23.25;15.50;;;;;-0.38;63.92;100059.56;5099968;27;45347;-59
2022/12/13 02:16:17;;;;;;;;;20.00;20.00;;;;;-0.34;63.27;100057.72;5098705;27;45250;-60
2022/12/13 02:18:55;;;;;;;;;21.00;19.25;;;;;-0.33;63.65;100062.06;5098853;27;45419;-60
2022/12/13 02:21:44;;;;;;;;;20.75;18.75;;;;;-0.35;63.26;100062.09;5080710;27;45524;-57
2022/12/13 02:24:34;;;;;;;;;23.50;21.25;;;;;-0.41;63.16;100058.72;5034454;27;45520;-60
2022/12/13 02:27:08;;;;;;;;;25.50;17.75;;;;;-0.46;63.19;100056.22;5087863;27;45610;-60
2022/12/13 02:29:55;;;;;;;;;14.25;13.00;;;;;-0.40;63.37;100052.59;5078896;28;45294;-59
2022/12/13 02:32:46;;;;;;;;;28.00;19.00;;;;;-0.40;62.80;100055.22;5099786;27;45242;-61
2022/12/13 02:35:33;;;;;;;;;28.50;19.50;;;;;-0.44;62.77;100066.63;5035142;27;45480;-60
2022/12/13 02:38:15;;;;;;;;;20.00;19.00;;;;;-0.48;62.57;100047.56;5081131;27;45275;-61
2022/12/13 02:40:56;;;;;;;;;19.00;15.00;;;;;-0.47;62.83;100043.19;5071890;28;45474;-64
2022/12/13 02:43:28;;;;;;;;;23.25;18.25;;;;;-0.39;62.44;100054.31;5088694;27;45466;-59
2022/12/13 02:45:58;;;;;;;;;17.75;13.00;;;;;-0.45;62.92;100039.66;5098258;27;46324;-60
2022/12/13 02:48:37;;;;;;;;;18.25;16.25;;;;;-0.36;62.39;100049.94;5081968;27;45413;-60
2022/12/13 02:51:05;;;;;;;;;18.00;15.00;;;;;-0.36;62.34;100049.06;5099506;27;45393;-58
2022/12/13 02:53:33;;;;;;;;;20.75;18.00;;;;;-0.41;62.21;100058.72;5090530;27;45532;-60
2022/12/13 02:55:58;;;;;;;;;17.50;13.00;;;;;-0.44;62.68;100054.44;5088742;27;45417;-60
2022/12/13 02:58:32;;;;;;;;;23.00;21.25;;;;;-0.44;61.94;100054.44;5098758;27;45841;-59
2022/12/13 03:01:31;;;;;;;;;22.00;19.25;;;;;-0.51;62.30;100036.31;5099625;27;45400;-61
2022/12/13 03:04:09;;;;;;;;;12.50;11.50;;;;;-0.51;61.65;100037.19;5096646;27;45386;-59
2022/12/13 03:06:38;;;;;;;;;22.00;15.25;;;;;-0.50;62.08;100038.91;5096410;27;46611;-58
2022/12/13 03:09:23;;;;;;;;;18.75;13.75;;;;;-0.53;61.96;100036.31;5100158;27;45504;-58
2022/12/13 03:15:38;;;;;;;;;22.25;17.50;;;;;-0.50;62.94;100035.41;5098282;27;45334;-59
2022/12/13 03:18:17;;;;;;;;;14.50;14.50;;;;;-0.51;62.63;100031.94;5098736;27;46177;-61
2022/12/13 03:20:48;;;;;;;;;24.25;20.25;;;;;-0.51;62.72;100024.13;5079084;27;46042;-59
2022/12/13 03:23:16;;;;;;;;;16.00;12.50;;;;;-0.51;62.94;100020.66;5096127;27;45445;-60
2022/12/13 03:25:42;;;;;;;;;23.00;18.75;;;;;-0.50;63.03;100009.31;5098283;27;45196;-61
2022/12/13 03:28:07;;;;;;;;;18.50;17.00;;;;;-0.44;62.90;100009.16;5097931;27;46352;-60
2022/12/13 03:30:33;;;;;;;;;23.50;19.00;;;;;-0.50;62.44;100017.13;5097372;27;45234;-60
2022/12/13 03:32:59;;;;;;;;;22.00;18.75;;;;;-0.53;62.79;100014.56;5097953;27;45489;-61
2022/12/13 03:35:25;;;;;;;;;16.50;12.25;;;;;-0.50;62.69;100018.00;5097965;27;45559;-61
2022/12/13 03:37:51;;;;;;;;;25.75;20.00;;;;;-0.46;63.07;100014.41;5097482;27;45813;-61
2022/12/13 03:40:18;;;;;;;;;19.00;15.50;;;;;-0.52;62.46;100008.44;5096565;27;45891;-60
2022/12/13 03:42:44;;;;;;;;;20.00;15.00;;;;;-0.47;62.60;100011.84;5093022;27;45504;-59
2022/12/13 03:45:09;;;;;;;;;13.75;12.00;;;;;-0.49;62.60;100011.88;5079578;27;45378;-60
2022/12/13 03:47:35;;;;;;;;;20.00;17.50;;;;;-0.52;62.77;100011.94;5068189;28;48107;-60
2022/12/13 03:50:00;;;;;;;;;23.75;20.25;;;;;-0.55;62.76;100003.28;5079771;27;45385;-60
2022/12/13 03:52:26;;;;;;;;;24.50;21.50;;;;;-0.62;62.46;99987.75;5096066;27;45172;-66
2022/12/13 03:54:51;;;;;;;;;14.50;14.00;;;;;-0.57;62.52;100003.31;5092499;27;45659;-61
2022/12/13 03:57:16;;;;;;;;;20.50;19.25;;;;;-0.61;62.55;100005.16;5096746;27;46358;-61
2022/12/13 03:59:42;;;;;;;;;20.00;18.25;;;;;-0.57;62.48;100007.69;5080053;27;45357;-61
2022/12/13 04:02:07;;;;;;;;;19.25;17.00;;;;;-0.60;62.56;100006.00;5097136;27;45318;-61
2022/12/13 04:04:32;;;;;;;;;25.25;19.50;;;;;-0.53;62.65;100014.56;5095818;27;45241;-60
2022/12/13 04:07:00;;;;;;;;;28.75;22.00;;;;;-0.54;62.46;100018.06;5076564;27;48351;-61
2022/12/13 04:09:26;;;;;;;;;39.75;30.25;;;;;-0.65;62.54;100002.63;5098042;27;45418;-58
2022/12/13 04:14:35;;;;;;;;;19.00;15.25;;;;;-0.52;62.36;100019.78;5097830;27;45425;-61
2022/12/13 04:17:01;;;;;;;;;20.50;15.50;;;;;-0.52;62.19;100016.28;5095960;27;45341;-59
2022/12/13 04:19:26;;;;;;;;;21.75;19.25;;;;;-0.64;62.22;100010.44;5096670;27;45485;-60
2022/12/13 04:21:53;;;;;;;;;18.25;16.00;;;;;-0.63;61.78;100004.31;5096102;27;45533;-59
2022/12/13 04:24:19;;;;;;;;;23.50;23.00;;;;;-0.66;62.19;100006.97;5098088;27;45567;-59
2022/12/13 04:26:44;;;;;;;;;24.50;22.00;;;;;-0.67;62.04;100007.88;5078934;27;45810;-61
2022/12/13 04:29:09;;;;;;;;;25.25;22.50;;;;;-0.64;61.86;100014.81;5086405;27;45329;-58
2022/12/13 04:31:35;;;;;;;;;23.00;17.50;;;;;-0.62;62.22;100015.63;5096564;27;45281;-62
2022/12/13 04:34:00;;;;;;;;;27.25;23.50;;;;;-0.63;61.94;100006.94;5097419;27;45535;-60
2022/12/13 04:36:26;;;;;;;;;21.50;20.00;;;;;-0.73;62.09;99981.88;5096531;27;46215;-59
2022/12/13 04:38:51;;;;;;;;;26.25;20.00;;;;;-0.66;62.04;99991.31;5098452;27;45391;-61
2022/12/13 04:41:18;;;;;;;;;34.25;26.25;;;;;-0.62;62.01;99994.75;5087598;27;45512;-61
2022/12/13 04:43:48;;;;;;;;;25.00;19.00;;;;;-0.69;61.86;99985.28;5078010;27;45290;-62
2022/12/13 04:46:14;;;;;;;;;24.00;20.00;;;;;-0.77;62.48;99977.63;5089323;27;46822;-57
2022/12/13 04:48:39;;;;;;;;;31.75;19.50;;;;;-0.71;61.99;99982.72;5097291;27;45255;-58
2022/12/13 04:51:05;;;;;;;;;22.00;19.00;;;;;-0.72;62.15;99986.22;5085768;27;45199;-58
2022/12/13 04:53:30;;;;;;;;;23.75;16.50;;;;;-0.72;62.46;99986.22;5083364;27;45536;-61
2022/12/13 04:55:56;;;;;;;;;23.75;19.50;;;;;-0.72;62.38;99985.34;5098643;27;45777;-60
2022/12/13 04:58:21;;;;;;;;;31.50;21.50;;;;;-0.67;62.80;99989.59;5096734;27;45411;-61
2022/12/13 05:00:47;;;;;;;;;24.75;15.00;;;;;-0.74;62.35;99977.56;5097652;27;45826;-62
2022/12/13 05:03:12;;;;;;;;;22.50;19.50;;;;;-0.70;62.21;99984.44;5096840;27;45404;-60
2022/12/13 05:05:39;;;;;;;;;32.00;21.75;;;;;-0.68;62.26;99990.47;5077654;27;45792;-61
2022/12/13 05:08:05;;;;;;;;;24.50;21.75;;;;;-0.68;62.51;99987.88;5096014;27;45296;-60
2022/12/13 05:10:31;;;;;;;;;25.75;20.50;;;;;-0.65;62.66;99990.44;5076857;28;45437;-61
2022/12/13 05:13:01;;;;;;;;;21.25;17.50;;;;;-0.70;62.53;99966.16;5088998;27;45419;-62
2022/12/13 05:15:28;;;;;;;;;22.50;22.00;;;;;-0.66;62.08;99980.00;5096711;27;46138;-62
2022/12/13 05:17:54;;;;;;;;;26.25;24.00;;;;;-0.67;62.56;99968.69;5096488;27;45504;-61
2022/12/13 05:20:19;;;;;;;;;22.75;21.00;;;;;-0.65;62.13;99974.78;5097350;27;45330;-60
2022/12/13 05:22:45;;;;;;;;;15.00;15.00;;;;;-0.69;62.25;99980.94;5095720;27;45563;-61
2022/12/13 05:25:10;;;;;;;;;30.25;17.00;;;;;-0.70;62.04;99973.13;5096886;27;45398;-61
2022/12/13 05:27:35;;;;;;;;;35.00;21.33;;;;;-0.76;62.23;99963.69;5092426;27;45491;-61
2022/12/13 05:30:01;;;;;;;;;25.00;19.50;;;;;-0.74;62.24;99972.34;5096390;27;45468;-60
2022/12/13 05:32:27;;;;;;;;;24.00;24.00;;;;;-0.74;62.04;99979.31;5093869;27;45424;-61
2022/12/13 05:34:52;;;;;;;;;27.25;24.00;;;;;-0.72;62.50;99977.53;5076005;28;45346;-59
2022/12/13 05:37:17;;;;;;;;;24.50;20.00;;;;;-0.71;62.41;99979.25;5093919;27;45999;-61
2022/12/13 05:39:43;;;;;;;;;35.50;21.25;;;;;-0.73;62.36;99984.50;5096822;27;45453;-59
2022/12/13 05:42:08;;;;;;;;;28.00;21.67;;;;;-0.78;62.03;99988.06;5082294;27;45641;-60
2022/12/13 05:44:34;;;;;;;;;22.50;18.00;;;;;-0.81;62.14;99995.97;5096749;27;46050;-61
2022/12/13 05:47:02;;;;;;;;;22.00;19.50;;;;;-0.81;62.23;99993.34;5093851;27;45720;-59
2022/12/13 05:49:28;;;;;;;;;33.25;20.75;;;;;-0.93;62.67;99982.25;5096473;27;45432;-61
2022/12/13 05:51:53;;;;;;;;;28.25;24.25;;;;;-0.84;62.86;100002.13;5094008;27;45560;-60
2022/12/13 05:54:19;;;;;;;;;26.50;26.50;;;;;-0.89;62.85;99980.47;5077213;27;46121;-61
2022/12/13 05:56:44;;;;;;;;;24.00;21.25;;;;;-0.86;62.86;99982.16;5076783;27;45423;-61
2022/12/13 05:59:10;;;;;;;;;23.50;19.25;;;;;-0.79;62.62;99989.81;5097084;27;45304;-61
2022/12/13 06:01:35;;;;;;;;;26.00;23.75;;;;;-0.75;62.74;99998.47;5095147;27;45579;-60
2022/12/13 06:04:00;;;;;;;;;28.25;22.50;;;;;-0.78;62.57;99996.78;5095211;27;45433;-61
2022/12/13 06:06:26;;;;;;;;;25.50;21.00;;;;;-0.80;62.72;100002.91;5070798;27;45559;-62
2022/12/13 06:08:51;;;;;;;;;30.75;24.00;;;;;-0.76;62.83;100005.44;5086076;27;45516;-63
2022/12/13 06:11:17;;;;;;;;;29.00;23.00;;;;;-0.75;62.92;100004.56;5093296;27;45440;-62
2022/12/13 06:13:42;;;;;;;;;31.50;27.25;;;;;-0.71;62.73;100016.66;5093553;27;45926;-60
2022/12/13 06:16:08;;;;;;;;;18.75;18.75;;;;;-0.67;62.69;100025.28;5091779;27;45442;-59
2022/12/13 06:18:34;;;;;;;;;29.75;17.50;;;;;-0.67;62.59;100023.53;5088980;27;45314;-60
2022/12/13 06:21:05;;;;;;;;;26.50;21.25;;;;;-0.70;62.47;100023.59;5096020;27;45556;-59
2022/12/13 06:23:33;;;;;;;;;27.75;22.50;;;;;-0.69;62.36;100016.63;5094634;27;46236;-58
2022/12/13 06:26:01;;;;;;;;;31.00;24.25;;;;;-0.64;62.33;100025.25;5095232;27;45389;-57
2022/12/13 06:28:27;;;;;;;;;33.33;25.33;;;;;-0.67;61.63;100023.53;5078108;27;45215;-60
2022/12/13 06:30:52;;;;;;;;;28.25;24.25;;;;;-0.68;62.32;100023.56;5096645;27;45663;-61
2022/12/13 06:33:18;;;;;;;;;25.00;24.25;;;;;-0.65;62.12;100021.78;5088271;27;45431;-59
2022/12/13 06:35:44;;;;;;;;;23.75;21.25;;;;;-0.70;62.31;100007.94;5096864;27;45591;-60
2022/12/13 06:38:09;;;;;;;;;34.75;25.25;;;;;-0.68;62.12;100019.19;5096273;27;45404;-59
2022/12/13 06:40:35;;;;;;;;;25.75;23.00;;;;;-0.64;62.16;100023.50;5083245;27;45909;-58
2022/12/13 06:43:00;;;;;;;;;37.00;25.00;;;;;-0.54;62.94;100018.06;5100194;27;45562;-61
2022/12/13 06:45:26;;;;;;;;;27.50;24.00;;;;;-0.50;62.38;100017.13;5107066;27;45366;-60
2022/12/13 06:47:52;;;;;;;;;25.75;23.25;;;;;-0.48;62.03;100010.97;5078599;27;45342;-60
2022/12/13 06:50:17;;;;;;;;;40.33;32.67;;;;;-0.44;61.45;100011.78;5113263;27;45578;-63
2022/12/13 06:52:45;;;;;;;;;37.67;29.33;;;;;-0.49;61.39;100000.56;5120240;27;45401;-53
2022/12/13 06:55:10;;;;;;;;;36.00;25.75;;;;;-0.51;61.53;99990.16;5081705;27;45737;-61
2022/12/13 06:57:42;;;;;;;;;25.00;24.50;;;;;-0.40;62.24;99997.75;5090708;27;45334;-59
2022/12/13 07:00:09;;;;;;;;;33.50;28.00;;;;;-0.45;61.59;99999.59;5098077;27;45483;-60
2022/12/13 07:02:34;;;;;;;;;34.25;26.75;;;;;-0.49;61.41;99979.69;5095490;27;46124;-61
2022/12/13 07:05:02;;;;;;;;;30.67;30.67;;;;;-0.41;61.18;99994.28;5095275;27;45458;-69
2022/12/13 07:07:28;;;;;;;;;38.00;24.75;;;;;-0.49;61.37;99977.06;5097583;27;45504;-70
2022/12/13 07:09:54;;;;;;;;;33.00;27.67;;;;;-0.42;60.91;99996.91;5094577;27;45471;-61
2022/12/13 07:12:20;;;;;;;;;38.50;30.50;;;;;-0.37;61.44;99984.66;5077192;27;46304;-59
2022/12/13 07:14:45;;;;;;;;;39.33;36.00;;;;;-0.43;61.33;99977.78;5107786;27;47511;-57
2022/12/13 07:17:11;;;;;;;;;38.33;34.00;;;;;-0.44;61.63;99972.59;5096629;27;45415;-61
2022/12/13 07:19:39;;;;;;;;;32.50;28.50;;;;;-0.39;61.75;99991.63;5079583;27;45317;-59
2022/12/13 07:22:05;;;;;;;;;40.00;26.33;;;;;-0.43;61.58;99980.38;5096552;27;45398;-59
2022/12/13 07:24:30;;;;;;;;;40.00;28.50;;;;;-0.32;61.12;99996.72;5096940;27;45425;-55
2022/12/13 07:26:56;;;;;;;;;32.67;25.00;;;;;-0.30;60.86;99999.28;5075546;27;45458;-59
2022/12/13 07:29:21;;;;;;;;;35.67;31.33;;;;;-0.35;60.59;100014.22;5095858;27;47067;-58
2022/12/13 07:31:47;;;;;;;;;28.67;25.67;;;;;-0.48;61.37;100007.50;5081255;27;46838;-61
2022/12/13 07:34:12;;;;;;;;;27.33;25.33;;;;;-0.50;61.18;100017.13;5095270;27;46098;-62
2022/12/13 07:36:37;;;;;;;;;27.33;25.00;;;;;-0.52;61.62;100014.56;5096817;27;45381;-61
2022/12/13 07:39:03;;;;;;;;;37.33;27.33;;;;;-0.49;61.56;100016.25;5098434;27;45602;-60
2022/12/13 07:41:28;;;;;;;;;29.33;27.33;;;;;-0.56;61.54;99994.59;5097896;27;46265;-59
2022/12/13 07:43:54;;;;;;;;;26.67;23.67;;;;;-0.53;61.94;99991.06;5088852;27;45523;-58
2022/12/13 07:46:20;;;;;;;;;31.67;26.33;;;;;-0.40;61.40;100013.41;5083223;27;45548;-60
2022/12/13 07:48:45;;;;;;;;;46.67;34.33;;;;;-0.39;61.43;100022.97;5084158;27;45738;-61
2022/12/13 07:51:11;;;;;;;;;33.67;31.67;;;;;-0.40;61.38;100040.41;5090221;27;45492;-59
2022/12/13 07:53:37;;;;;;;;;33.00;28.00;;;;;-0.41;61.12;100024.75;5084422;27;45687;-61
2022/12/13 07:56:05;;;;;;;;;31.00;27.67;;;;;-0.36;61.35;100036.00;5102499;27;45437;-60
2022/12/13 07:58:32;;;;;;;;;33.67;27.00;;;;;-0.34;61.82;100052.50;5097842;27;45652;-59
2022/12/13 08:01:06;;;;;;;;;38.33;31.67;;;;;-0.34;61.13;100060.34;5097206;27;47324;-62
2022/12/13 08:03:32;;;;;;;;;25.50;25.50;;;;;-0.33;61.63;100056.84;5097595;27;45348;-60
2022/12/13 08:06:10;;;;;;;;;29.00;28.67;;;;;-0.35;61.41;100058.63;5098075;27;45241;-59
2022/12/13 08:08:37;;;;;;;;;50.33;42.33;;;;;-0.35;61.40;100045.56;5095975;27;45462;-59
2022/12/13 08:11:08;;;;;;;;;39.67;32.00;;;;;-0.40;60.88;100056.06;5077310;28;45401;-58
2022/12/13 08:13:34;;;;;;;;;36.33;27.67;;;;;-0.36;61.25;100051.69;5091429;27;45286;-59
2022/12/13 08:16:02;;;;;;;;;41.00;31.50;;;;;-0.32;61.04;100056.81;5078436;27;45580;-58
2022/12/13 08:18:28;;;;;;;;;37.00;30.25;;;;;-0.28;61.16;100054.97;5094431;27;45667;-57
2022/12/13 08:21:12;;;;;;;;;38.00;34.50;;;;;-0.31;61.00;100052.44;5090406;27;45409;-58
2022/12/13 08:23:38;;;;;;;;;37.00;28.50;;;;;-0.28;61.30;100065.44;5088573;27;45486;-62
2022/12/13 08:26:05;;;;;;;;;38.75;29.75;;;;;-0.30;60.68;100072.44;5092385;27;45477;-58
2022/12/13 08:28:32;;;;;;;;;31.00;22.50;;;;;-0.24;60.58;100063.63;5078650;28;45574;-60
2022/12/13 08:31:13;;;;;;;;;35.75;28.50;;;;;-0.27;60.97;100067.16;5077789;27;45447;-58
2022/12/13 08:33:39;;;;;;;;;35.00;29.25;;;;;-0.26;60.99;100073.22;5077636;28;45460;-58
2022/12/13 08:36:14;;;;;;;;;40.33;33.33;;;;;-0.33;60.42;100065.53;5082698;27;45509;-58
2022/12/13 08:38:40;;;;;;;;;39.75;37.50;;;;;-0.32;60.96;100069.00;5098058;27;45420;-61
2022/12/13 08:41:05;;;;;;;;;34.00;28.00;;;;;-0.33;61.06;100062.06;5096819;27;46322;-64
2022/12/13 08:43:31;;;;;;;;;27.25;27.00;;;;;-0.37;61.07;100061.28;5086865;27;45247;-56
2022/12/13 08:45:56;;;;;;;;;35.33;35.33;;;;;-0.29;60.82;100068.94;5076733;28;45434;-59
2022/12/13 08:48:22;;;;;;;;;36.00;33.00;;;;;-0.28;60.91;100072.41;5077604;27;45401;-59
2022/12/13 08:50:47;;;;;;;;;50.00;36.00;;;;;-0.30;60.70;100056.75;5107505;27;46988;-58
2022/12/13 08:53:13;;;;;;;;;32.00;26.75;;;;;-0.21;60.75;100074.88;5093180;27;45499;-59
2022/12/13 08:55:38;;;;;;;;;33.00;28.50;;;;;-0.20;60.64;100078.34;5095477;27;45220;-59
2022/12/13 08:58:08;;;;;;;;;47.33;34.67;;;;;-0.16;60.76;100078.25;5084118;27;45370;-58
2022/12/13 09:00:35;;;;;;;;;41.67;38.33;;;;;-0.14;60.48;100089.53;5094103;27;47278;-58
2022/12/13 09:03:04;;;;;;;;;41.67;34.33;;;;;-0.15;60.59;100079.97;5096401;27;45356;-68
2022/12/13 09:05:29;;;;;;;;;31.33;28.33;;;;;-0.16;60.66;100075.63;5091262;27;45405;-65
2022/12/13 09:07:56;;;;;;;;;36.00;33.67;;;;;-0.11;60.44;100065.97;5110763;27;45439;-61
2022/12/13 09:10:22;;;;;;;;;45.67;34.00;;;;;-0.10;60.31;100057.22;5085971;27;46177;-65
2022/12/13 09:12:47;;;;;;;;;38.00;28.25;;;;;-0.08;60.24;100051.97;5080692;27;45529;-58
2022/12/13 09:15:13;;;;;;;;;42.67;33.33;;;;;-0.07;60.40;100054.53;5077237;27;45962;-65
2022/12/13 09:17:38;;;;;;;;;37.67;34.67;;;;;-0.07;60.01;100051.06;5089287;27;45307;-64
2022/12/13 09:20:08;;;;;;;;;45.33;36.67;;;;;-0.11;60.76;100060.72;5117029;27;45467;-68
2022/12/13 09:22:34;;;;;;;;;37.67;35.33;;;;;-0.09;60.33;100060.69;5117026;27;45242;-66
2022/12/13 09:25:00;;;;;;;;;36.33;33.00;;;;;-0.06;59.82;100056.25;5107220;27;45235;-63
2022/12/13 09:27:27;;;;;;;;;37.67;33.33;;;;;-0.09;60.28;100055.47;5086457;27;45324;-57
2022/12/13 09:29:52;;;;;;;;;48.00;37.00;;;;;-0.08;60.31;100049.34;5080271;27;45595;-62
2022/12/13 09:32:18;;;;;;;;;34.33;32.67;;;;;-0.13;59.74;100049.47;5094291;27;45765;-60
2022/12/13 09:34:43;;;;;;;;;40.67;35.67;;;;;-0.23;59.77;100032.25;5097681;27;45463;-59
2022/12/13 09:37:10;;;;;;;;;46.00;38.00;;;;;-0.18;60.39;100024.28;5097314;27;45290;-59
2022/12/13 09:39:36;;;;;;;;;40.00;36.67;;;;;-0.10;59.67;100044.16;5078614;27;46178;-61
2022/12/13 09:42:02;;;;;;;;;37.00;28.00;;;;;-0.08;60.08;100051.97;5096446;27;45492;-60
2022/12/13 09:44:44;;;;;;;;;34.00;26.67;;;;;-0.04;60.10;100054.47;5078644;27;45632;-60
2022/12/13 09:47:15;;;;;;;;;37.00;31.00;;;;;-0.02;59.57;100055.28;5097320;27;45287;-59
2022/12/13 09:49:43;;;;;;;;;51.67;37.67;;;;;0.01;60.11;100057.00;5078130;27;46463;-61
2022/12/13 09:52:14;;;;;;;;;42.33;34.00;;;;;-0.03;59.30;100048.34;5096558;27;45433;-62
2022/12/13 09:54:40;;;;;;;;;40.33;29.33;;;;;-0.06;59.04;100051.03;5096903;27;45420;-60
2022/12/13 09:57:31;;;;;;;;;39.67;37.33;;;;;-0.10;59.74;100033.69;5096626;27;45370;-58
2022/12/13 09:59:56;;;;;;;;;40.33;36.33;;;;;-0.15;59.69;100013.75;5094950;27;46570;-59
2022/12/13 10:02:25;;;;;;;;;40.33;34.67;;;;;0.11;59.20;100048.03;5092012;27;46761;-60
2022/12/13 10:04:52;;;;;;;;;28.33;22.67;;;;;0.13;59.18;100040.16;5076588;27;45312;-59
2022/12/13 10:07:23;;;;;;;;;43.00;39.00;;;;;0.24;58.54;100046.00;5097109;27;45491;-59
2022/12/13 10:09:57;;;;;;;;;49.67;40.00;;;;;0.33;58.34;100043.19;5096425;27;46435;-60
2022/12/13 10:12:23;;;;;;;;;37.67;33.67;;;;;0.41;58.31;100049.13;5095292;27;45544;-58
2022/12/13 10:14:54;;;;;;;;;40.33;34.67;;;;;0.49;57.93;100049.78;5099313;27;45393;-59
2022/12/13 10:17:21;;;;;;;;;49.75;31.00;;;;;0.49;58.05;100051.53;5082766;27;45589;-58
2022/12/13 10:19:50;;;;;;;;;39.25;34.00;;;;;0.53;57.81;100051.44;5078074;27;46138;-60
2022/12/13 10:22:18;;;;;;;;;37.00;33.50;;;;;0.63;58.13;100045.97;5085751;27;45332;-58
2022/12/13 10:25:02;;;;;;;;;44.50;35.75;;;;;0.77;57.27;100038.63;5081640;27;45404;-60
2022/12/13 10:27:43;;;;;;;;;44.50;37.00;;;;;0.72;58.05;100027.44;5072818;28;45476;-60
2022/12/13 10:30:20;;;;;;;;;43.00;39.75;;;;;0.82;57.27;100031.56;5087018;27;46649;-60
2022/12/13 10:32:58;;;;;;;;;45.25;33.25;;;;;0.89;56.38;100031.34;5100081;27;45408;-62
2022/12/13 10:35:27;;;;;;;;;42.00;37.00;;;;;0.96;55.64;100024.19;5098890;27;45494;-60
2022/12/13 10:37:55;;;;;;;;;41.00;34.75;;;;;0.93;55.90;100016.44;5092027;27;45424;-61
2022/12/13 10:40:33;;;;;;;;;38.50;26.50;;;;;1.07;56.24;100023.94;5096673;27;45499;-61
2022/12/13 10:43:16;;;;;;;;;48.25;36.25;;;;;1.12;55.80;100024.66;5114952;27;46212;-59
2022/12/13 10:45:55;;;;;;;;;39.50;28.75;;;;;1.24;55.41;100023.47;5096278;27;45477;-59
2022/12/13 10:48:23;;;;;;;;;48.50;39.25;;;;;1.35;55.22;100010.94;5099013;27;45467;-62
2022/12/13 10:51:11;;;;;;;;;44.50;28.50;;;;;1.44;54.78;100015.94;5097757;27;45520;-61
2022/12/13 10:53:41;;;;;;;;;34.25;32.00;;;;;1.43;54.30;100004.59;5092199;27;45483;-60
2022/12/13 10:56:07;;;;;;;;;39.25;30.50;;;;;1.55;55.00;100005.97;5078843;28;45214;-61
2022/12/13 10:58:45;;;;;;;;;38.00;36.25;;;;;1.62;54.12;99991.81;5116055;27;45564;-60
2022/12/13 11:01:25;;;;;;;;;34.75;29.25;;;;;1.76;53.59;99997.50;5118402;27;46244;-62
2022/12/13 11:04:22;;;;;;;;;27.75;24.25;;;;;1.88;53.02;99996.28;5096724;27;46998;-61
2022/12/13 11:06:48;;;;;;;;;37.00;28.00;;;;;1.82;52.95;99975.47;5072800;28;45326;-60
2022/12/13 11:09:33;;;;;;;;;34.25;30.75;;;;;1.92;52.75;99982.16;5060659;28;45439;-58
2022/12/13 11:12:02;;;;;;;;;37.25;35.50;;;;;1.83;52.92;99981.63;5078893;27;45318;-60
2022/12/13 11:14:33;;;;;;;;;38.75;32.25;;;;;1.78;52.42;99969.47;5089908;27;45378;-60
2022/12/13 11:17:14;;;;;;;;;35.00;30.25;;;;;1.63;53.22;99948.97;5079841;27;45272;-62
2022/12/13 11:19:44;;;;;;;;;28.75;23.75;;;;;1.76;52.46;99958.19;5095933;27;45422;-59
2022/12/13 11:22:23;;;;;;;;;42.75;34.00;;;;;1.92;52.44;99955.09;5086067;27;46651;-59
2022/12/13 11:24:51;;;;;;;;;43.50;30.50;;;;;1.83;52.75;99960.63;5097548;27;45354;-61